Terminal Aerodrome Forecast
Issued by NWS Cleveland, OH

Home | Current Version | Previous Version | Graphics & Text | Print | Product List | Glossary On
Versions: 1 2 3 4 5 6 7 8 9 10 11 12 13 14 15 16 17 18 19 20 21
000
FTUS41 KCLE 201700
TAFYNG
TAF
KYNG 201733Z 2018/2118 22010KT P6SM OVC100
      TEMPO 2018/2020 -SHRA
     FM202200 23010KT P6SM OVC050
      TEMPO 2022/2101 5SM -SHRA
     FM210100 25010KT 6SM -SHRA OVC035
     FM210500 27007KT 4SM -SHRA BR OVC025
     FM210800 29008KT 5SM -DZ BR OVC008
     FM211400 31012KT P6SM OVC015=

USA.gov is the U.S. government's official web portal to all federal, state and local government web resources and services.